sensor_id;sensor_type;location;lat;lon;timestamp;P1;durP1;ratioP1;P2;durP2;ratioP2
20294;SDS011;10306;52.128;5.208;2024-01-11T00:01:20;14.43;;;8.77;;
20294;SDS011;10306;52.128;5.208;2024-01-11T00:03:46;10.80;;;7.63;;
20294;SDS011;10306;52.128;5.208;2024-01-11T00:06:12;12.90;;;8.10;;
20294;SDS011;10306;52.128;5.208;2024-01-11T00:08:38;14.77;;;8.67;;
20294;SDS011;10306;52.128;5.208;2024-01-11T00:11:04;13.80;;;8.83;;
20294;SDS011;10306;52.128;5.208;2024-01-11T00:13:30;12.87;;;8.80;;
20294;SDS011;10306;52.128;5.208;2024-01-11T00:15:56;13.40;;;8.53;;
20294;SDS011;10306;52.128;5.208;2024-01-11T00:18:22;15.13;;;8.47;;
20294;SDS011;10306;52.128;5.208;2024-01-11T00:20:48;13.60;;;8.53;;
20294;SDS011;10306;52.128;5.208;2024-01-11T00:23:14;12.17;;;8.63;;
20294;SDS011;10306;52.128;5.208;2024-01-11T00:25:40;13.83;;;8.63;;
20294;SDS011;10306;52.128;5.208;2024-01-11T00:28:06;12.10;;;8.07;;
20294;SDS011;10306;52.128;5.208;2024-01-11T00:30:32;13.00;;;8.47;;
20294;SDS011;10306;52.128;5.208;2024-01-11T00:32:58;13.47;;;8.20;;
20294;SDS011;10306;52.128;5.208;2024-01-11T00:35:24;14.90;;;8.23;;
20294;SDS011;10306;52.128;5.208;2024-01-11T00:37:50;13.90;;;8.70;;
20294;SDS011;10306;52.128;5.208;2024-01-11T00:40:16;15.83;;;8.90;;
20294;SDS011;10306;52.128;5.208;2024-01-11T00:42:42;16.53;;;9.33;;
20294;SDS011;10306;52.128;5.208;2024-01-11T00:45:08;16.57;;;9.40;;
20294;SDS011;10306;52.128;5.208;2024-01-11T00:47:34;16.27;;;9.40;;
20294;SDS011;10306;52.128;5.208;2024-01-11T00:50:00;15.87;;;8.83;;
20294;SDS011;10306;52.128;5.208;2024-01-11T00:52:26;16.83;;;9.53;;
20294;SDS011;10306;52.128;5.208;2024-01-11T00:54:52;19.70;;;8.40;;
20294;SDS011;10306;52.128;5.208;2024-01-11T00:57:18;14.13;;;8.47;;
20294;SDS011;10306;52.128;5.208;2024-01-11T00:59:44;13.87;;;8.80;;
20294;SDS011;10306;52.128;5.208;2024-01-11T01:02:09;12.10;;;7.60;;
20294;SDS011;10306;52.128;5.208;2024-01-11T01:04:38;16.73;;;8.50;;
20294;SDS011;10306;52.128;5.208;2024-01-11T01:07:04;15.07;;;8.30;;
20294;SDS011;10306;52.128;5.208;2024-01-11T01:09:31;16.07;;;8.47;;
20294;SDS011;10306;52.128;5.208;2024-01-11T01:11:57;19.00;;;8.57;;
20294;SDS011;10306;52.128;5.208;2024-01-11T01:14:23;12.43;;;8.40;;
20294;SDS011;10306;52.128;5.208;2024-01-11T01:16:49;14.90;;;8.40;;
20294;SDS011;10306;52.128;5.208;2024-01-11T01:19:15;14.10;;;7.87;;
20294;SDS011;10306;52.128;5.208;2024-01-11T01:21:41;15.33;;;8.63;;
20294;SDS011;10306;52.128;5.208;2024-01-11T01:24:06;12.23;;;8.53;;
20294;SDS011;10306;52.128;5.208;2024-01-11T01:26:32;17.37;;;9.20;;
20294;SDS011;10306;52.128;5.208;2024-01-11T01:28:58;14.77;;;8.67;;
20294;SDS011;10306;52.128;5.208;2024-01-11T01:31:24;15.20;;;8.60;;
20294;SDS011;10306;52.128;5.208;2024-01-11T01:33:50;11.57;;;8.23;;
20294;SDS011;10306;52.128;5.208;2024-01-11T01:36:16;14.53;;;7.97;;
20294;SDS011;10306;52.128;5.208;2024-01-11T01:38:42;14.30;;;8.57;;
20294;SDS011;10306;52.128;5.208;2024-01-11T01:41:08;16.90;;;8.63;;
20294;SDS011;10306;52.128;5.208;2024-01-11T01:43:34;18.57;;;8.57;;
20294;SDS011;10306;52.128;5.208;2024-01-11T01:46:00;15.47;;;8.70;;
20294;SDS011;10306;52.128;5.208;2024-01-11T01:48:26;17.23;;;9.53;;
20294;SDS011;10306;52.128;5.208;2024-01-11T01:50:52;15.53;;;9.43;;
20294;SDS011;10306;52.128;5.208;2024-01-11T01:53:22;15.97;;;9.03;;
20294;SDS011;10306;52.128;5.208;2024-01-11T01:55:48;19.23;;;9.13;;
20294;SDS011;10306;52.128;5.208;2024-01-11T01:58:15;17.40;;;9.93;;
20294;SDS011;10306;52.128;5.208;2024-01-11T02:00:43;14.63;;;8.87;;
20294;SDS011;10306;52.128;5.208;2024-01-11T02:03:09;15.27;;;9.13;;
20294;SDS011;10306;52.128;5.208;2024-01-11T02:05:35;23.77;;;10.07;;
20294;SDS011;10306;52.128;5.208;2024-01-11T02:08:03;16.10;;;8.77;;
20294;SDS011;10306;52.128;5.208;2024-01-11T02:10:30;15.27;;;8.80;;
20294;SDS011;10306;52.128;5.208;2024-01-11T02:12:58;17.97;;;9.93;;
20294;SDS011;10306;52.128;5.208;2024-01-11T02:15:24;19.30;;;10.37;;
20294;SDS011;10306;52.128;5.208;2024-01-11T02:17:50;16.27;;;9.90;;
20294;SDS011;10306;52.128;5.208;2024-01-11T02:20:16;18.33;;;10.43;;
20294;SDS011;10306;52.128;5.208;2024-01-11T02:22:43;20.23;;;9.67;;
20294;SDS011;10306;52.128;5.208;2024-01-11T02:25:10;15.80;;;8.83;;
20294;SDS011;10306;52.128;5.208;2024-01-11T02:27:46;16.20;;;9.43;;
20294;SDS011;10306;52.128;5.208;2024-01-11T02:30:12;16.07;;;10.13;;
20294;SDS011;10306;52.128;5.208;2024-01-11T02:32:38;21.23;;;10.63;;
20294;SDS011;10306;52.128;5.208;2024-01-11T02:35:05;18.80;;;9.50;;
20294;SDS011;10306;52.128;5.208;2024-01-11T02:37:31;21.83;;;10.60;;
20294;SDS011;10306;52.128;5.208;2024-01-11T02:39:57;18.97;;;10.23;;
20294;SDS011;10306;52.128;5.208;2024-01-11T02:42:23;21.73;;;11.50;;
20294;SDS011;10306;52.128;5.208;2024-01-11T02:44:49;19.43;;;10.00;;
20294;SDS011;10306;52.128;5.208;2024-01-11T02:47:15;21.00;;;10.90;;
20294;SDS011;10306;52.128;5.208;2024-01-11T02:49:41;22.17;;;11.07;;
20294;SDS011;10306;52.128;5.208;2024-01-11T02:52:07;21.50;;;10.73;;
20294;SDS011;10306;52.128;5.208;2024-01-11T02:54:32;23.03;;;11.90;;
20294;SDS011;10306;52.128;5.208;2024-01-11T02:56:58;21.83;;;11.53;;
20294;SDS011;10306;52.128;5.208;2024-01-11T02:59:24;17.67;;;10.83;;
20294;SDS011;10306;52.128;5.208;2024-01-11T03:01:50;20.43;;;11.20;;
20294;SDS011;10306;52.128;5.208;2024-01-11T03:04:16;26.27;;;11.83;;
20294;SDS011;10306;52.128;5.208;2024-01-11T03:06:42;19.03;;;11.37;;
20294;SDS011;10306;52.128;5.208;2024-01-11T03:09:08;20.17;;;11.83;;
20294;SDS011;10306;52.128;5.208;2024-01-11T03:11:34;24.27;;;12.57;;
20294;SDS011;10306;52.128;5.208;2024-01-11T03:14:02;18.87;;;11.70;;
20294;SDS011;10306;52.128;5.208;2024-01-11T03:16:29;25.43;;;12.33;;
20294;SDS011;10306;52.128;5.208;2024-01-11T03:18:55;22.70;;;12.40;;
20294;SDS011;10306;52.128;5.208;2024-01-11T03:21:20;21.30;;;12.17;;
20294;SDS011;10306;52.128;5.208;2024-01-11T03:23:46;24.90;;;12.57;;
20294;SDS011;10306;52.128;5.208;2024-01-11T03:26:16;20.87;;;12.03;;
20294;SDS011;10306;52.128;5.208;2024-01-11T03:28:42;23.67;;;12.57;;
20294;SDS011;10306;52.128;5.208;2024-01-11T03:31:09;23.50;;;13.03;;
20294;SDS011;10306;52.128;5.208;2024-01-11T03:33:35;23.13;;;12.97;;
20294;SDS011;10306;52.128;5.208;2024-01-11T03:36:07;23.27;;;12.37;;
20294;SDS011;10306;52.128;5.208;2024-01-11T03:38:33;26.53;;;13.73;;
20294;SDS011;10306;52.128;5.208;2024-01-11T03:40:59;29.03;;;13.67;;
20294;SDS011;10306;52.128;5.208;2024-01-11T03:43:25;30.63;;;14.33;;
20294;SDS011;10306;52.128;5.208;2024-01-11T03:45:51;24.13;;;13.37;;
20294;SDS011;10306;52.128;5.208;2024-01-11T03:48:17;25.03;;;13.27;;
20294;SDS011;10306;52.128;5.208;2024-01-11T03:50:43;27.77;;;14.33;;
20294;SDS011;10306;52.128;5.208;2024-01-11T03:53:09;31.07;;;15.27;;
20294;SDS011;10306;52.128;5.208;2024-01-11T03:55:35;28.70;;;14.17;;
20294;SDS011;10306;52.128;5.208;2024-01-11T03:58:01;29.83;;;14.07;;
20294;SDS011;10306;52.128;5.208;2024-01-11T04:00:27;29.43;;;14.93;;
20294;SDS011;10306;52.128;5.208;2024-01-11T04:02:53;26.30;;;13.87;;
20294;SDS011;10306;52.128;5.208;2024-01-11T04:05:19;31.47;;;15.47;;
20294;SDS011;10306;52.128;5.208;2024-01-11T04:07:45;33.00;;;16.20;;
20294;SDS011;10306;52.128;5.208;2024-01-11T04:10:11;25.43;;;15.00;;
20294;SDS011;10306;52.128;5.208;2024-01-11T04:12:37;30.17;;;15.40;;
20294;SDS011;10306;52.128;5.208;2024-01-11T04:15:03;27.93;;;14.73;;
20294;SDS011;10306;52.128;5.208;2024-01-11T04:17:29;26.10;;;14.70;;
20294;SDS011;10306;52.128;5.208;2024-01-11T04:19:55;32.47;;;15.97;;
20294;SDS011;10306;52.128;5.208;2024-01-11T04:22:21;29.93;;;15.17;;
20294;SDS011;10306;52.128;5.208;2024-01-11T04:24:47;30.00;;;14.90;;
20294;SDS011;10306;52.128;5.208;2024-01-11T04:27:13;30.53;;;15.37;;
20294;SDS011;10306;52.128;5.208;2024-01-11T04:29:39;25.60;;;15.30;;
20294;SDS011;10306;52.128;5.208;2024-01-11T04:32:05;31.67;;;14.97;;
20294;SDS011;10306;52.128;5.208;2024-01-11T04:34:31;29.63;;;14.67;;
20294;SDS011;10306;52.128;5.208;2024-01-11T04:36:57;32.00;;;15.13;;
20294;SDS011;10306;52.128;5.208;2024-01-11T04:39:23;30.83;;;14.93;;
20294;SDS011;10306;52.128;5.208;2024-01-11T04:41:49;33.20;;;15.87;;
20294;SDS011;10306;52.128;5.208;2024-01-11T04:44:15;31.33;;;15.97;;
20294;SDS011;10306;52.128;5.208;2024-01-11T04:46:41;37.20;;;16.47;;
20294;SDS011;10306;52.128;5.208;2024-01-11T04:49:07;32.17;;;15.97;;
20294;SDS011;10306;52.128;5.208;2024-01-11T04:51:33;29.77;;;15.50;;
20294;SDS011;10306;52.128;5.208;2024-01-11T04:53:59;30.00;;;15.50;;
20294;SDS011;10306;52.128;5.208;2024-01-11T04:56:25;34.00;;;16.00;;
20294;SDS011;10306;52.128;5.208;2024-01-11T04:58:51;38.10;;;17.07;;
20294;SDS011;10306;52.128;5.208;2024-01-11T05:01:18;32.57;;;16.10;;
20294;SDS011;10306;52.128;5.208;2024-01-11T05:03:44;37.47;;;17.60;;
20294;SDS011;10306;52.128;5.208;2024-01-11T05:06:16;37.93;;;17.00;;
20294;SDS011;10306;52.128;5.208;2024-01-11T05:08:43;33.10;;;16.30;;
20294;SDS011;10306;52.128;5.208;2024-01-11T05:11:16;38.07;;;17.83;;
20294;SDS011;10306;52.128;5.208;2024-01-11T05:13:43;37.67;;;17.77;;
20294;SDS011;10306;52.128;5.208;2024-01-11T05:16:45;32.13;;;17.50;;
20294;SDS011;10306;52.128;5.208;2024-01-11T05:19:05;40.40;;;17.90;;
20294;SDS011;10306;52.128;5.208;2024-01-11T05:21:32;35.17;;;17.17;;
20294;SDS011;10306;52.128;5.208;2024-01-11T05:23:58;37.50;;;17.23;;
20294;SDS011;10306;52.128;5.208;2024-01-11T05:26:24;39.23;;;18.37;;
20294;SDS011;10306;52.128;5.208;2024-01-11T05:28:50;39.60;;;18.70;;
20294;SDS011;10306;52.128;5.208;2024-01-11T05:31:16;38.50;;;17.33;;
20294;SDS011;10306;52.128;5.208;2024-01-11T05:33:42;39.77;;;19.70;;
20294;SDS011;10306;52.128;5.208;2024-01-11T05:36:08;36.70;;;19.07;;
20294;SDS011;10306;52.128;5.208;2024-01-11T05:38:34;47.43;;;19.53;;
20294;SDS011;10306;52.128;5.208;2024-01-11T05:41:00;38.80;;;18.70;;
20294;SDS011;10306;52.128;5.208;2024-01-11T05:43:27;41.83;;;19.30;;
20294;SDS011;10306;52.128;5.208;2024-01-11T05:45:53;40.27;;;19.90;;
20294;SDS011;10306;52.128;5.208;2024-01-11T05:48:19;40.83;;;19.50;;
20294;SDS011;10306;52.128;5.208;2024-01-11T05:50:45;39.47;;;19.37;;
20294;SDS011;10306;52.128;5.208;2024-01-11T05:53:11;39.93;;;19.33;;
20294;SDS011;10306;52.128;5.208;2024-01-11T05:55:37;39.60;;;19.03;;
20294;SDS011;10306;52.128;5.208;2024-01-11T05:58:03;36.37;;;18.63;;
20294;SDS011;10306;52.128;5.208;2024-01-11T06:00:29;34.70;;;18.13;;
20294;SDS011;10306;52.128;5.208;2024-01-11T06:02:55;38.27;;;19.00;;
20294;SDS011;10306;52.128;5.208;2024-01-11T06:05:21;34.37;;;17.27;;
20294;SDS011;10306;52.128;5.208;2024-01-11T06:07:47;37.27;;;18.57;;
20294;SDS011;10306;52.128;5.208;2024-01-11T06:10:14;39.93;;;18.33;;
20294;SDS011;10306;52.128;5.208;2024-01-11T06:12:40;35.20;;;17.93;;
20294;SDS011;10306;52.128;5.208;2024-01-11T06:15:06;38.60;;;18.23;;
20294;SDS011;10306;52.128;5.208;2024-01-11T06:17:32;38.00;;;17.90;;
20294;SDS011;10306;52.128;5.208;2024-01-11T06:19:58;38.53;;;19.33;;
20294;SDS011;10306;52.128;5.208;2024-01-11T06:22:24;39.60;;;19.50;;
20294;SDS011;10306;52.128;5.208;2024-01-11T06:24:50;37.00;;;18.40;;
20294;SDS011;10306;52.128;5.208;2024-01-11T06:27:16;43.57;;;19.07;;
20294;SDS011;10306;52.128;5.208;2024-01-11T06:29:42;38.10;;;19.37;;
20294;SDS011;10306;52.128;5.208;2024-01-11T06:32:08;38.23;;;19.60;;
20294;SDS011;10306;52.128;5.208;2024-01-11T06:34:34;35.70;;;17.93;;
20294;SDS011;10306;52.128;5.208;2024-01-11T06:37:01;39.00;;;19.40;;
20294;SDS011;10306;52.128;5.208;2024-01-11T06:39:27;43.20;;;19.37;;
20294;SDS011;10306;52.128;5.208;2024-01-11T06:41:54;46.10;;;22.07;;
20294;SDS011;10306;52.128;5.208;2024-01-11T06:44:20;42.60;;;19.17;;
20294;SDS011;10306;52.128;5.208;2024-01-11T06:46:46;40.43;;;20.13;;
20294;SDS011;10306;52.128;5.208;2024-01-11T06:49:12;43.37;;;21.13;;
20294;SDS011;10306;52.128;5.208;2024-01-11T06:51:39;43.03;;;20.60;;
20294;SDS011;10306;52.128;5.208;2024-01-11T06:54:05;41.13;;;20.27;;
20294;SDS011;10306;52.128;5.208;2024-01-11T06:56:31;41.73;;;21.30;;
20294;SDS011;10306;52.128;5.208;2024-01-11T06:58:57;44.13;;;21.33;;
20294;SDS011;10306;52.128;5.208;2024-01-11T07:01:23;42.63;;;21.50;;
20294;SDS011;10306;52.128;5.208;2024-01-11T07:03:49;43.70;;;19.93;;
20294;SDS011;10306;52.128;5.208;2024-01-11T07:06:15;41.33;;;19.80;;
20294;SDS011;10306;52.128;5.208;2024-01-11T07:08:41;43.03;;;20.13;;
20294;SDS011;10306;52.128;5.208;2024-01-11T07:11:07;42.13;;;20.57;;
20294;SDS011;10306;52.128;5.208;2024-01-11T07:13:33;44.93;;;21.90;;
20294;SDS011;10306;52.128;5.208;2024-01-11T07:15:59;43.47;;;20.90;;
20294;SDS011;10306;52.128;5.208;2024-01-11T07:18:25;39.97;;;19.93;;
20294;SDS011;10306;52.128;5.208;2024-01-11T07:20:52;39.67;;;19.90;;
20294;SDS011;10306;52.128;5.208;2024-01-11T07:23:18;42.33;;;20.67;;
20294;SDS011;10306;52.128;5.208;2024-01-11T07:25:44;41.30;;;20.83;;
20294;SDS011;10306;52.128;5.208;2024-01-11T07:28:10;42.23;;;20.93;;
20294;SDS011;10306;52.128;5.208;2024-01-11T07:30:36;41.07;;;20.07;;
20294;SDS011;10306;52.128;5.208;2024-01-11T07:33:02;41.97;;;20.33;;
20294;SDS011;10306;52.128;5.208;2024-01-11T07:35:29;39.50;;;19.77;;
20294;SDS011;10306;52.128;5.208;2024-01-11T07:37:56;43.17;;;20.73;;
20294;SDS011;10306;52.128;5.208;2024-01-11T07:40:22;43.90;;;19.73;;
20294;SDS011;10306;52.128;5.208;2024-01-11T07:42:48;50.53;;;22.43;;
20294;SDS011;10306;52.128;5.208;2024-01-11T07:45:15;43.70;;;20.67;;
20294;SDS011;10306;52.128;5.208;2024-01-11T07:47:42;38.37;;;20.83;;
20294;SDS011;10306;52.128;5.208;2024-01-11T07:50:09;45.23;;;20.80;;
20294;SDS011;10306;52.128;5.208;2024-01-11T07:52:35;44.80;;;22.00;;
20294;SDS011;10306;52.128;5.208;2024-01-11T07:55:06;45.93;;;22.70;;
20294;SDS011;10306;52.128;5.208;2024-01-11T07:57:33;43.03;;;22.27;;
20294;SDS011;10306;52.128;5.208;2024-01-11T07:59:59;45.43;;;20.50;;
20294;SDS011;10306;52.128;5.208;2024-01-11T08:02:25;47.60;;;22.37;;
20294;SDS011;10306;52.128;5.208;2024-01-11T08:04:51;51.33;;;22.13;;
20294;SDS011;10306;52.128;5.208;2024-01-11T08:07:17;49.90;;;20.90;;
20294;SDS011;10306;52.128;5.208;2024-01-11T08:09:43;42.83;;;20.10;;
20294;SDS011;10306;52.128;5.208;2024-01-11T08:12:13;43.00;;;19.93;;
20294;SDS011;10306;52.128;5.208;2024-01-11T08:14:39;51.77;;;23.10;;
20294;SDS011;10306;52.128;5.208;2024-01-11T08:17:07;46.70;;;21.73;;
20294;SDS011;10306;52.128;5.208;2024-01-11T08:19:33;48.00;;;21.33;;
20294;SDS011;10306;52.128;5.208;2024-01-11T08:21:59;47.07;;;21.20;;
20294;SDS011;10306;52.128;5.208;2024-01-11T08:24:25;46.20;;;22.30;;
20294;SDS011;10306;52.128;5.208;2024-01-11T08:26:51;46.53;;;21.73;;
20294;SDS011;10306;52.128;5.208;2024-01-11T08:29:17;45.33;;;22.13;;
20294;SDS011;10306;52.128;5.208;2024-01-11T08:31:44;50.67;;;23.30;;
20294;SDS011;10306;52.128;5.208;2024-01-11T08:34:10;45.93;;;21.87;;
20294;SDS011;10306;52.128;5.208;2024-01-11T08:36:36;44.93;;;21.97;;
20294;SDS011;10306;52.128;5.208;2024-01-11T08:39:03;49.33;;;22.63;;
20294;SDS011;10306;52.128;5.208;2024-01-11T08:41:33;43.33;;;20.80;;
20294;SDS011;10306;52.128;5.208;2024-01-11T08:44:00;48.27;;;22.70;;
20294;SDS011;10306;52.128;5.208;2024-01-11T08:46:27;48.07;;;21.97;;
20294;SDS011;10306;52.128;5.208;2024-01-11T08:48:56;46.37;;;22.20;;
20294;SDS011;10306;52.128;5.208;2024-01-11T08:51:22;51.63;;;25.50;;
20294;SDS011;10306;52.128;5.208;2024-01-11T08:53:48;54.37;;;27.77;;
20294;SDS011;10306;52.128;5.208;2024-01-11T08:56:14;59.20;;;29.83;;
20294;SDS011;10306;52.128;5.208;2024-01-11T08:58:42;64.77;;;31.90;;
20294;SDS011;10306;52.128;5.208;2024-01-11T09:01:08;59.13;;;28.90;;
20294;SDS011;10306;52.128;5.208;2024-01-11T09:03:34;48.83;;;25.17;;
20294;SDS011;10306;52.128;5.208;2024-01-11T09:06:00;56.87;;;25.90;;
20294;SDS011;10306;52.128;5.208;2024-01-11T09:08:26;53.23;;;26.60;;
20294;SDS011;10306;52.128;5.208;2024-01-11T09:10:52;53.90;;;24.73;;
20294;SDS011;10306;52.128;5.208;2024-01-11T09:13:18;50.90;;;23.83;;
20294;SDS011;10306;52.128;5.208;2024-01-11T09:15:44;48.43;;;24.47;;
20294;SDS011;10306;52.128;5.208;2024-01-11T09:18:10;49.67;;;24.67;;
20294;SDS011;10306;52.128;5.208;2024-01-11T09:20:36;49.17;;;25.77;;
20294;SDS011;10306;52.128;5.208;2024-01-11T09:23:02;48.23;;;24.03;;
20294;SDS011;10306;52.128;5.208;2024-01-11T09:25:29;53.73;;;26.17;;
20294;SDS011;10306;52.128;5.208;2024-01-11T09:27:55;48.70;;;24.73;;
20294;SDS011;10306;52.128;5.208;2024-01-11T09:30:22;53.67;;;25.90;;
20294;SDS011;10306;52.128;5.208;2024-01-11T09:32:48;48.13;;;24.43;;
20294;SDS011;10306;52.128;5.208;2024-01-11T09:35:14;44.23;;;23.73;;
20294;SDS011;10306;52.128;5.208;2024-01-11T09:37:40;50.13;;;24.10;;
20294;SDS011;10306;52.128;5.208;2024-01-11T09:40:06;54.40;;;24.97;;
20294;SDS011;10306;52.128;5.208;2024-01-11T09:42:39;50.43;;;23.93;;
20294;SDS011;10306;52.128;5.208;2024-01-11T09:45:09;49.70;;;23.57;;
20294;SDS011;10306;52.128;5.208;2024-01-11T09:47:38;51.23;;;24.47;;
20294;SDS011;10306;52.128;5.208;2024-01-11T09:50:04;49.30;;;24.07;;
20294;SDS011;10306;52.128;5.208;2024-01-11T09:52:30;48.23;;;23.23;;
20294;SDS011;10306;52.128;5.208;2024-01-11T09:55:00;48.10;;;24.40;;
20294;SDS011;10306;52.128;5.208;2024-01-11T09:57:28;53.33;;;28.23;;
20294;SDS011;10306;52.128;5.208;2024-01-11T09:59:54;53.20;;;27.87;;
20294;SDS011;10306;52.128;5.208;2024-01-11T10:02:21;50.87;;;25.50;;
20294;SDS011;10306;52.128;5.208;2024-01-11T10:04:49;43.73;;;23.30;;
20294;SDS011;10306;52.128;5.208;2024-01-11T10:07:17;43.07;;;22.67;;
20294;SDS011;10306;52.128;5.208;2024-01-11T10:09:45;41.73;;;22.17;;
20294;SDS011;10306;52.128;5.208;2024-01-11T10:12:11;41.30;;;21.70;;
20294;SDS011;10306;52.128;5.208;2024-01-11T10:14:37;44.93;;;22.03;;
20294;SDS011;10306;52.128;5.208;2024-01-11T10:17:03;38.80;;;21.63;;
20294;SDS011;10306;52.128;5.208;2024-01-11T10:19:30;43.87;;;21.77;;
20294;SDS011;10306;52.128;5.208;2024-01-11T10:21:56;42.40;;;21.90;;
20294;SDS011;10306;52.128;5.208;2024-01-11T10:24:23;42.57;;;22.63;;
20294;SDS011;10306;52.128;5.208;2024-01-11T10:27:00;43.97;;;20.63;;
20294;SDS011;10306;52.128;5.208;2024-01-11T10:29:32;41.17;;;21.20;;
20294;SDS011;10306;52.128;5.208;2024-01-11T10:31:58;39.80;;;20.97;;
20294;SDS011;10306;52.128;5.208;2024-01-11T10:34:24;42.10;;;21.53;;
20294;SDS011;10306;52.128;5.208;2024-01-11T10:36:50;38.47;;;21.20;;
20294;SDS011;10306;52.128;5.208;2024-01-11T10:39:17;38.70;;;20.23;;
20294;SDS011;10306;52.128;5.208;2024-01-11T10:41:47;37.70;;;19.60;;
20294;SDS011;10306;52.128;5.208;2024-01-11T10:44:19;37.47;;;19.63;;
20294;SDS011;10306;52.128;5.208;2024-01-11T10:46:47;35.07;;;19.80;;
20294;SDS011;10306;52.128;5.208;2024-01-11T10:49:18;41.10;;;19.50;;
20294;SDS011;10306;52.128;5.208;2024-01-11T10:51:53;35.30;;;19.83;;
20294;SDS011;10306;52.128;5.208;2024-01-11T10:54:22;36.97;;;19.07;;
20294;SDS011;10306;52.128;5.208;2024-01-11T10:56:48;34.53;;;19.17;;
20294;SDS011;10306;52.128;5.208;2024-01-11T10:59:16;36.80;;;19.77;;
20294;SDS011;10306;52.128;5.208;2024-01-11T11:01:44;35.23;;;18.63;;
20294;SDS011;10306;52.128;5.208;2024-01-11T11:04:10;38.07;;;19.17;;
20294;SDS011;10306;52.128;5.208;2024-01-11T11:06:36;36.77;;;19.40;;
20294;SDS011;10306;52.128;5.208;2024-01-11T11:09:04;38.90;;;19.60;;
20294;SDS011;10306;52.128;5.208;2024-01-11T11:11:32;36.33;;;19.73;;
20294;SDS011;10306;52.128;5.208;2024-01-11T11:13:58;37.40;;;19.90;;
20294;SDS011;10306;52.128;5.208;2024-01-11T11:16:26;35.17;;;19.37;;
20294;SDS011;10306;52.128;5.208;2024-01-11T11:18:53;38.27;;;19.47;;
20294;SDS011;10306;52.128;5.208;2024-01-11T11:21:20;36.97;;;19.33;;
20294;SDS011;10306;52.128;5.208;2024-01-11T11:23:46;39.17;;;19.57;;
20294;SDS011;10306;52.128;5.208;2024-01-11T11:26:16;36.57;;;19.83;;
20294;SDS011;10306;52.128;5.208;2024-01-11T11:28:46;33.07;;;18.87;;
20294;SDS011;10306;52.128;5.208;2024-01-11T11:31:13;37.53;;;20.10;;
20294;SDS011;10306;52.128;5.208;2024-01-11T11:33:59;35.10;;;19.50;;
20294;SDS011;10306;52.128;5.208;2024-01-11T11:36:29;36.07;;;18.67;;
20294;SDS011;10306;52.128;5.208;2024-01-11T11:38:55;31.97;;;18.00;;
20294;SDS011;10306;52.128;5.208;2024-01-11T11:41:25;35.90;;;18.93;;
20294;SDS011;10306;52.128;5.208;2024-01-11T11:43:51;32.10;;;18.30;;
20294;SDS011;10306;52.128;5.208;2024-01-11T11:46:18;28.77;;;17.83;;
20294;SDS011;10306;52.128;5.208;2024-01-11T11:48:48;31.50;;;18.83;;
20294;SDS011;10306;52.128;5.208;2024-01-11T11:51:16;30.60;;;17.43;;
20294;SDS011;10306;52.128;5.208;2024-01-11T11:53:43;34.07;;;18.10;;
20294;SDS011;10306;52.128;5.208;2024-01-11T11:56:09;36.10;;;19.00;;
20294;SDS011;10306;52.128;5.208;2024-01-11T11:58:35;33.70;;;18.63;;
20294;SDS011;10306;52.128;5.208;2024-01-11T12:01:02;29.03;;;17.47;;
20294;SDS011;10306;52.128;5.208;2024-01-11T12:03:38;30.33;;;18.50;;
20294;SDS011;10306;52.128;5.208;2024-01-11T12:06:06;34.13;;;17.33;;
20294;SDS011;10306;52.128;5.208;2024-01-11T12:08:33;32.17;;;17.03;;
20294;SDS011;10306;52.128;5.208;2024-01-11T12:10:59;33.13;;;17.40;;
20294;SDS011;10306;52.128;5.208;2024-01-11T12:13:25;32.03;;;17.03;;
20294;SDS011;10306;52.128;5.208;2024-01-11T12:15:52;32.20;;;16.93;;
20294;SDS011;10306;52.128;5.208;2024-01-11T12:18:18;28.80;;;16.77;;
20294;SDS011;10306;52.128;5.208;2024-01-11T12:20:44;26.83;;;15.37;;
20294;SDS011;10306;52.128;5.208;2024-01-11T12:23:10;27.10;;;16.53;;
20294;SDS011;10306;52.128;5.208;2024-01-11T12:25:38;30.87;;;17.97;;
20294;SDS011;10306;52.128;5.208;2024-01-11T12:28:05;29.27;;;17.57;;
20294;SDS011;10306;52.128;5.208;2024-01-11T12:30:32;29.33;;;16.97;;
20294;SDS011;10306;52.128;5.208;2024-01-11T12:32:58;30.53;;;18.07;;
20294;SDS011;10306;52.128;5.208;2024-01-11T12:35:26;31.53;;;18.13;;
20294;SDS011;10306;52.128;5.208;2024-01-11T12:37:56;30.07;;;17.30;;
20294;SDS011;10306;52.128;5.208;2024-01-11T12:40:24;27.83;;;16.63;;
20294;SDS011;10306;52.128;5.208;2024-01-11T12:42:52;29.17;;;16.87;;
20294;SDS011;10306;52.128;5.208;2024-01-11T12:45:21;30.70;;;16.33;;
20294;SDS011;10306;52.128;5.208;2024-01-11T12:47:50;27.77;;;17.00;;
20294;SDS011;10306;52.128;5.208;2024-01-11T12:50:16;29.43;;;16.47;;
20294;SDS011;10306;52.128;5.208;2024-01-11T12:52:43;29.53;;;16.93;;
20294;SDS011;10306;52.128;5.208;2024-01-11T12:55:17;22.43;;;15.33;;
20294;SDS011;10306;52.128;5.208;2024-01-11T12:57:43;28.80;;;16.90;;
20294;SDS011;10306;52.128;5.208;2024-01-11T13:00:12;26.40;;;16.63;;
20294;SDS011;10306;52.128;5.208;2024-01-11T13:02:39;26.37;;;16.17;;
20294;SDS011;10306;52.128;5.208;2024-01-11T13:05:05;27.90;;;16.73;;
20294;SDS011;10306;52.128;5.208;2024-01-11T13:07:36;24.40;;;15.00;;
20294;SDS011;10306;52.128;5.208;2024-01-11T13:10:02;26.20;;;15.47;;
20294;SDS011;10306;52.128;5.208;2024-01-11T13:12:29;24.43;;;14.53;;
20294;SDS011;10306;52.128;5.208;2024-01-11T13:14:55;25.33;;;15.50;;
20294;SDS011;10306;52.128;5.208;2024-01-11T13:17:21;26.30;;;15.03;;
20294;SDS011;10306;52.128;5.208;2024-01-11T13:19:47;24.53;;;15.23;;
20294;SDS011;10306;52.128;5.208;2024-01-11T13:22:13;24.00;;;14.47;;
20294;SDS011;10306;52.128;5.208;2024-01-11T13:24:39;24.37;;;14.83;;
20294;SDS011;10306;52.128;5.208;2024-01-11T13:27:05;23.47;;;14.50;;
20294;SDS011;10306;52.128;5.208;2024-01-11T13:29:31;23.60;;;14.30;;
20294;SDS011;10306;52.128;5.208;2024-01-11T13:31:57;20.43;;;13.83;;
20294;SDS011;10306;52.128;5.208;2024-01-11T13:34:23;23.17;;;13.80;;
20294;SDS011;10306;52.128;5.208;2024-01-11T13:36:49;25.20;;;14.13;;
20294;SDS011;10306;52.128;5.208;2024-01-11T13:39:15;21.33;;;13.93;;
20294;SDS011;10306;52.128;5.208;2024-01-11T13:41:43;20.23;;;13.20;;
20294;SDS011;10306;52.128;5.208;2024-01-11T13:44:09;24.83;;;14.60;;
20294;SDS011;10306;52.128;5.208;2024-01-11T13:46:36;24.00;;;15.50;;
20294;SDS011;10306;52.128;5.208;2024-01-11T13:49:02;28.90;;;15.90;;
20294;SDS011;10306;52.128;5.208;2024-01-11T13:51:29;23.20;;;14.60;;
20294;SDS011;10306;52.128;5.208;2024-01-11T13:53:57;25.03;;;15.37;;
20294;SDS011;10306;52.128;5.208;2024-01-11T13:56:24;30.60;;;18.57;;
20294;SDS011;10306;52.128;5.208;2024-01-11T13:58:50;29.47;;;17.77;;
20294;SDS011;10306;52.128;5.208;2024-01-11T14:01:16;26.23;;;15.67;;
20294;SDS011;10306;52.128;5.208;2024-01-11T14:03:42;23.63;;;15.47;;
20294;SDS011;10306;52.128;5.208;2024-01-11T14:06:08;23.37;;;15.27;;
20294;SDS011;10306;52.128;5.208;2024-01-11T14:08:34;24.33;;;14.70;;
20294;SDS011;10306;52.128;5.208;2024-01-11T14:11:00;22.27;;;15.03;;
20294;SDS011;10306;52.128;5.208;2024-01-11T14:13:26;22.73;;;14.90;;
20294;SDS011;10306;52.128;5.208;2024-01-11T14:15:52;20.33;;;13.83;;
20294;SDS011;10306;52.128;5.208;2024-01-11T14:18:20;22.83;;;14.73;;
20294;SDS011;10306;52.128;5.208;2024-01-11T14:20:46;21.60;;;13.73;;